Time;durP1;ratioP1;P1;durP2;ratioP2;P2;SDS_P1;SDS_P2;PMS_P1;PMS_P2;Temp;Humidity;BMP_temperature;BMP_pressure;BME280_temperature;BME280_humidity;BME280_pressure;Samples;Min_cycle;Max_cycle;Signal;HPM_P1;HPM_P2
2022/12/07 00:02:04;;;;;;;;;;;4.50;99.90;;;;;;5094262;28;19920;-71
2022/12/07 00:04:30;;;;;;;;;;;4.80;99.90;;;;;;5108252;28;19924;-71
2022/12/07 00:06:55;;;;;;;;;;;4.70;99.90;;;;;;5106601;28;20373;-72
2022/12/07 00:09:21;;;;;;;;;;;4.90;99.90;;;;;;5096291;28;19920;-71
2022/12/07 00:11:48;;;;;;;;;;;4.90;99.90;;;;;;5076685;28;19953;-71
2022/12/07 00:14:14;;;;;;;;;;;5.20;99.90;;;;;;5102635;28;19947;-71
2022/12/07 00:16:40;;;;;;;;;;;5.40;99.90;;;;;;5085547;28;19920;-72
2022/12/07 00:19:06;;;;;;;;;;;5.30;99.90;;;;;;5111951;28;19926;-72
2022/12/07 00:21:32;;;;;;;;;;;5.10;99.90;;;;;;5084486;28;19963;-71
2022/12/07 00:23:58;;;;;;;;;;;5.10;99.90;;;;;;5083757;28;19927;-71
2022/12/07 00:26:25;;;;;;;;;;;5.20;99.90;;;;;;5111456;28;19920;-71
2022/12/07 00:28:52;;;;;;;;;;;5.10;99.90;;;;;;5095444;28;20007;-72
2022/12/07 00:31:18;;;;;;;;;;;4.90;99.90;;;;;;5078985;28;19973;-71
2022/12/07 00:33:44;;;;;;;;;;;5.10;99.90;;;;;;5102487;28;19924;-72
2022/12/07 00:36:11;;;;;;;;;;;5.00;99.90;;;;;;5077180;28;19927;-71
2022/12/07 00:38:37;;;;;;;;;;;5.00;99.90;;;;;;5096002;28;20022;-71
2022/12/07 00:41:04;;;;;;;;;;;4.90;99.90;;;;;;5077518;28;20412;-71
2022/12/07 00:43:30;;;;;;;;;;;4.80;99.90;;;;;;5077419;28;19921;-71
2022/12/07 00:45:55;;;;;;;;;;;5.00;99.90;;;;;;5076762;28;19920;-71
2022/12/07 00:48:21;;;;;;;;;;;4.90;99.90;;;;;;5096769;28;19927;-71
2022/12/07 00:50:47;;;;;;;;;;;4.70;99.90;;;;;;5078353;28;19931;-71
2022/12/07 00:53:13;;;;;;;;;;;4.90;99.90;;;;;;5077308;28;20287;-71
2022/12/07 00:55:38;;;;;;;;;;;4.80;99.90;;;;;;5094777;28;19920;-71
2022/12/07 00:58:04;;;;;;;;;;;5.00;99.90;;;;;;5077317;28;19927;-71
2022/12/07 01:00:30;;;;;;;;;;;5.00;99.90;;;;;;5095298;28;20294;-71
2022/12/07 01:02:55;;;;;;;;;;;4.70;99.90;;;;;;5095340;28;19920;-71
2022/12/07 01:05:21;;;;;;;;;;;5.00;99.90;;;;;;5077269;28;19927;-71
2022/12/07 01:07:46;;;;;;;;;;;5.00;99.90;;;;;;5095591;28;20022;-71
2022/12/07 01:10:12;;;;;;;;;;;5.10;99.90;;;;;;5077541;28;20366;-71
2022/12/07 01:12:38;;;;;;;;;;;5.20;99.90;;;;;;5077288;28;20433;-71
2022/12/07 01:15:04;;;;;;;;;;;5.10;99.90;;;;;;5094686;28;19999;-71
2022/12/07 01:17:30;;;;;;;;;;;4.90;99.90;;;;;;5095130;28;19920;-71
2022/12/07 01:19:55;;;;;;;;;;;5.10;99.90;;;;;;5076928;28;20031;-71
2022/12/07 01:22:21;;;;;;;;;;;5.00;99.90;;;;;;5077943;28;19920;-71
2022/12/07 01:24:47;;;;;;;;;;;5.00;99.90;;;;;;5076241;28;20337;-71
2022/12/07 01:27:12;;;;;;;;;;;4.90;99.90;;;;;;5076782;28;20408;-71
2022/12/07 01:29:38;;;;;;;;;;;4.60;99.90;;;;;;5077034;28;20309;-71
2022/12/07 01:32:03;;;;;;;;;;;4.80;99.90;;;;;;5095043;28;19920;-71
2022/12/07 01:34:29;;;;;;;;;;;4.80;99.90;;;;;;5075643;28;19932;-71
2022/12/07 01:36:54;;;;;;;;;;;4.90;99.90;;;;;;5110863;28;19988;-71
2022/12/07 01:39:20;;;;;;;;;;;4.90;99.90;;;;;;5111595;28;19920;-70
2022/12/07 01:41:45;;;;;;;;;;;4.60;99.90;;;;;;5115205;28;19920;-70
2022/12/07 01:44:17;;;;;;;;;;;4.80;99.90;;;;;;5095775;28;19920;-70
2022/12/07 01:46:47;;;;;;;;;;;4.90;99.90;;;;;;5085974;28;19974;-70
2022/12/07 01:49:16;;;;;;;;;;;5.10;99.90;;;;;;5087655;28;19924;-70
2022/12/07 01:51:43;;;;;;;;;;;4.90;99.90;;;;;;5104264;28;19967;-70
2022/12/07 01:54:09;;;;;;;;;;;5.20;99.90;;;;;;5075634;28;19924;-70
2022/12/07 01:56:36;;;;;;;;;;;5.10;99.90;;;;;;5086126;28;19920;-70
2022/12/07 01:59:01;;;;;;;;;;;5.20;99.90;;;;;;5094425;28;20008;-70
2022/12/07 02:01:27;;;;;;;;;;;5.20;99.90;;;;;;5092583;28;20359;-70
2022/12/07 02:03:53;;;;;;;;;;;5.20;99.90;;;;;;5093400;28;20289;-70
2022/12/07 02:06:22;;;;;;;;;;;5.30;99.90;;;;;;5093333;28;19927;-70
2022/12/07 02:08:47;;;;;;;;;;;5.30;99.90;;;;;;5093075;28;20305;-70
2022/12/07 02:11:13;;;;;;;;;;;5.30;99.90;;;;;;5109546;28;19920;-70
2022/12/07 02:13:40;;;;;;;;;;;5.30;99.90;;;;;;5094500;28;19923;-70
2022/12/07 02:16:23;;;;;;;;;;;5.20;99.90;;;;;;5113382;28;19927;-70
2022/12/07 02:19:24;;;;;;;;;;;5.10;99.90;;;;;;5090513;28;20085;-70
2022/12/07 02:21:58;;;;;;;;;;;5.40;99.90;;;;;;5093399;28;19963;-70
2022/12/07 02:24:42;;;;;;;;;;;4.90;99.90;;;;;;5090986;28;20531;-70
2022/12/07 02:27:08;;;;;;;;;;;5.00;99.90;;;;;;5106888;28;20285;-70
2022/12/07 02:29:38;;;;;;;;;;;5.20;99.90;;;;;;5084643;28;19942;-70
2022/12/07 02:32:13;;;;;;;;;;;5.10;99.90;;;;;;5067863;28;19924;-70
2022/12/07 02:34:56;;;;;;;;;;;5.00;99.90;;;;;;5102596;28;19924;-70
2022/12/07 02:37:28;;;;;;;;;;;4.70;99.90;;;;;;5081442;28;19920;-71
2022/12/07 02:39:57;;;;;;;;;;;4.90;99.90;;;;;;5093215;28;19966;-70
2022/12/07 02:42:26;;;;;;;;;;;4.60;99.90;;;;;;5092361;28;19928;-70
2022/12/07 02:44:52;;;;;;;;;;;4.70;99.90;;;;;;5091448;28;19927;-70
2022/12/07 02:47:19;;;;;;;;;;;4.70;99.90;;;;;;5075253;28;19947;-70
2022/12/07 02:49:44;;;;;;;;;;;4.60;99.90;;;;;;5093681;28;20385;-70
2022/12/07 02:52:10;;;;;;;;;;;4.40;99.90;;;;;;5075141;28;19974;-70
2022/12/07 02:54:35;;;;;;;;;;;4.60;99.90;;;;;;5092350;28;19935;-70
2022/12/07 02:57:01;;;;;;;;;;;4.80;99.90;;;;;;5074956;28;20325;-70
2022/12/07 02:59:32;;;;;;;;;;;4.50;99.90;;;;;;5092863;28;19966;-70
2022/12/07 03:02:16;;;;;;;;;;;4.60;99.90;;;;;;5058823;28;20429;-70
2022/12/07 03:04:42;;;;;;;;;;;4.50;99.90;;;;;;5092033;28;20337;-71
2022/12/07 03:07:20;;;;;;;;;;;4.40;99.90;;;;;;5093191;28;19920;-70
2022/12/07 03:09:51;;;;;;;;;;;4.40;99.90;;;;;;5100209;28;20317;-70
2022/12/07 03:12:18;;;;;;;;;;;4.40;99.90;;;;;;5087536;28;19924;-70
2022/12/07 03:14:52;;;;;;;;;;;4.40;99.90;;;;;;5074035;28;19970;-70
2022/12/07 03:17:21;;;;;;;;;;;4.40;99.90;;;;;;5074989;28;19920;-70
2022/12/07 03:19:49;;;;;;;;;;;4.20;99.90;;;;;;5084404;28;20277;-70
2022/12/07 03:22:14;;;;;;;;;;;4.10;99.90;;;;;;5091705;28;20407;-70
2022/12/07 03:24:43;;;;;;;;;;;4.20;99.90;;;;;;5090852;28;19920;-70
2022/12/07 03:27:14;;;;;;;;;;;4.30;99.90;;;;;;5091380;28;19927;-70
2022/12/07 03:29:43;;;;;;;;;;;4.10;99.90;;;;;;5092271;28;19920;-70
2022/12/07 03:32:29;;;;;;;;;;;5.00;99.90;;;;;;5108664;28;19920;-70
2022/12/07 03:35:07;;;;;;;;;;;4.40;99.90;;;;;;5090625;28;19992;-70
2022/12/07 03:37:34;;;;;;;;;;;4.10;99.90;;;;;;5094686;28;19919;-70
2022/12/07 03:40:03;;;;;;;;;;;4.40;99.90;;;;;;5094529;28;20258;-70
2022/12/07 03:42:30;;;;;;;;;;;4.50;99.90;;;;;;5112713;28;20402;-70
2022/12/07 03:44:55;;;;;;;;;;;4.50;99.90;;;;;;5093578;28;19920;-70
2022/12/07 03:47:26;;;;;;;;;;;4.20;99.90;;;;;;5094537;28;19926;-70
2022/12/07 03:49:52;;;;;;;;;;;4.40;99.90;;;;;;5112693;28;19919;-70
2022/12/07 03:52:19;;;;;;;;;;;4.80;99.90;;;;;;5110399;28;21547;-70
2022/12/07 03:55:11;;;;;;;;;;;4.80;99.90;;;;;;5089797;28;20018;-70
2022/12/07 03:57:38;;;;;;;;;;;4.70;99.90;;;;;;5089144;28;19927;-70
2022/12/07 04:00:04;;;;;;;;;;;4.70;99.90;;;;;;5091218;28;19927;-70
2022/12/07 04:02:30;;;;;;;;;;;4.90;99.90;;;;;;5092054;28;19967;-70
2022/12/07 04:04:56;;;;;;;;;;;5.10;99.90;;;;;;5091462;28;19956;-70
2022/12/07 04:07:21;;;;;;;;;;;5.30;99.90;;;;;;5092140;28;19931;-69
2022/12/07 04:09:47;;;;;;;;;;;5.00;99.90;;;;;;5107806;28;20436;-70
2022/12/07 04:12:13;;;;;;;;;;;5.30;99.90;;;;;;5094205;28;19965;-70
2022/12/07 04:14:38;;;;;;;;;;;5.30;99.90;;;;;;5081710;28;19929;-70
2022/12/07 04:17:04;;;;;;;;;;;5.20;99.90;;;;;;5092161;28;19959;-71
2022/12/07 04:19:31;;;;;;;;;;;4.90;99.90;;;;;;5074293;28;20382;-70
2022/12/07 04:21:56;;;;;;;;;;;5.00;99.90;;;;;;5073858;28;19926;-70
2022/12/07 04:24:22;;;;;;;;;;;5.00;99.90;;;;;;5073935;28;20010;-70
2022/12/07 04:26:48;;;;;;;;;;;5.30;99.90;;;;;;5090761;28;19974;-70
2022/12/07 04:29:14;;;;;;;;;;;4.90;99.90;;;;;;5091961;28;19920;-70
2022/12/07 04:31:40;;;;;;;;;;;5.00;99.90;;;;;;5092257;28;20400;-70
2022/12/07 04:34:06;;;;;;;;;;;4.80;99.90;;;;;;5101368;28;19924;-70
2022/12/07 04:36:32;;;;;;;;;;;4.80;99.90;;;;;;5103021;28;20023;-70
2022/12/07 04:38:58;;;;;;;;;;;;;;;;;;5073684;28;19932;-70
2022/12/07 04:41:26;;;;;;;;;;;4.70;99.90;;;;;;5059124;28;19920;-70
2022/12/07 04:44:02;;;;;;;;;;;4.70;99.90;;;;;;5090215;28;19928;-70
2022/12/07 04:46:28;;;;;;;;;;;4.90;99.90;;;;;;5090603;28;19920;-70
2022/12/07 04:48:54;;;;;;;;;;;4.60;99.90;;;;;;5090527;28;19920;-70
2022/12/07 04:51:21;;;;;;;;;;;4.60;99.90;;;;;;5091529;28;20052;-70
2022/12/07 04:53:47;;;;;;;;;;;4.70;99.90;;;;;;5089886;28;19928;-70
2022/12/07 04:56:13;;;;;;;;;;;4.50;99.90;;;;;;5091416;28;19928;-70
2022/12/07 04:58:39;;;;;;;;;;;4.60;99.90;;;;;;5088640;28;19934;-70
2022/12/07 05:01:04;;;;;;;;;;;4.50;99.90;;;;;;5091392;28;20408;-70
2022/12/07 05:03:29;;;;;;;;;;;4.70;99.90;;;;;;5091496;28;19973;-70
2022/12/07 05:05:55;;;;;;;;;;;4.30;99.90;;;;;;5093834;28;20456;-70
2022/12/07 05:08:20;;;;;;;;;;;4.50;99.90;;;;;;5093790;28;19919;-70
2022/12/07 05:10:48;;;;;;;;;;;4.40;99.90;;;;;;5093873;28;19996;-71
2022/12/07 05:13:13;;;;;;;;;;;4.40;99.90;;;;;;5115484;28;19927;-70
2022/12/07 05:15:38;;;;;;;;;;;4.20;99.90;;;;;;5112947;28;19920;-70
2022/12/07 05:18:04;;;;;;;;;;;4.40;99.90;;;;;;5079127;28;20275;-70
2022/12/07 05:20:30;;;;;;;;;;;4.40;99.90;;;;;;5101133;28;19920;-70
2022/12/07 05:22:55;;;;;;;;;;;4.20;99.90;;;;;;5114536;28;19923;-70
2022/12/07 05:25:21;;;;;;;;;;;4.40;99.90;;;;;;5110376;28;19920;-70
2022/12/07 05:27:47;;;;;;;;;;;4.50;99.90;;;;;;5088043;28;19924;-70
2022/12/07 05:30:12;;;;;;;;;;;4.50;99.90;;;;;;5090540;28;19920;-70
2022/12/07 05:32:38;;;;;;;;;;;4.50;99.90;;;;;;5109782;28;20420;-70
2022/12/07 05:35:03;;;;;;;;;;;4.40;99.90;;;;;;5095767;28;19997;-70
2022/12/07 05:37:29;;;;;;;;;;;4.40;99.90;;;;;;5106020;28;20503;-70
2022/12/07 05:39:54;;;;;;;;;;;4.60;99.90;;;;;;5076409;28;19920;-70
2022/12/07 05:42:20;;;;;;;;;;;4.60;99.90;;;;;;5076640;28;20447;-70
2022/12/07 05:44:46;;;;;;;;;;;4.50;99.90;;;;;;5100840;28;19919;-70
2022/12/07 05:47:12;;;;;;;;;;;4.70;99.90;;;;;;5108310;28;20301;-70
2022/12/07 05:49:38;;;;;;;;;;;4.60;99.90;;;;;;5113745;28;20266;-70
2022/12/07 05:52:03;;;;;;;;;;;4.90;99.90;;;;;;5096613;28;19926;-70
2022/12/07 05:54:29;;;;;;;;;;;4.50;99.90;;;;;;5114030;28;19923;-70
2022/12/07 05:56:54;;;;;;;;;;;4.60;99.90;;;;;;5114682;28;20010;-70
2022/12/07 05:59:23;;;;;;;;;;;4.60;99.90;;;;;;5112109;28;19920;-70
2022/12/07 06:02:15;;;;;;;;;;;4.50;99.90;;;;;;5084421;28;20010;-70
2022/12/07 06:04:42;;;;;;;;;;;4.60;99.90;;;;;;5088165;28;19927;-70
2022/12/07 06:07:08;;;;;;;;;;;4.50;99.90;;;;;;5092998;28;20355;-70
2022/12/07 06:09:33;;;;;;;;;;;4.40;99.90;;;;;;5092582;28;19920;-70
2022/12/07 06:14:43;;;;;;;;;;;4.50;99.90;;;;;;5091653;28;19975;-70
2022/12/07 06:17:09;;;;;;;;;;;4.60;99.90;;;;;;5094789;28;19962;-70
2022/12/07 06:19:35;;;;;;;;;;;4.70;99.90;;;;;;5088876;28;19927;-70
2022/12/07 06:22:00;;;;;;;;;;;4.70;99.90;;;;;;5073747;28;20464;-70
2022/12/07 06:24:26;;;;;;;;;;;4.90;99.90;;;;;;5081160;28;19923;-70
2022/12/07 06:26:51;;;;;;;;;;;4.80;99.90;;;;;;5093731;28;19983;-70
2022/12/07 06:29:17;;;;;;;;;;;4.90;99.90;;;;;;5093754;28;19924;-70
2022/12/07 06:31:43;;;;;;;;;;;4.80;99.90;;;;;;5092261;28;19927;-70
2022/12/07 06:34:10;;;;;;;;;;;4.90;99.90;;;;;;5091560;28;19927;-70
2022/12/07 06:36:36;;;;;;;;;;;4.60;99.90;;;;;;5092356;28;20413;-70
2022/12/07 06:39:02;;;;;;;;;;;4.60;99.90;;;;;;5094805;28;19924;-70
2022/12/07 06:41:28;;;;;;;;;;;4.50;99.90;;;;;;5078622;28;19920;-70
2022/12/07 06:43:53;;;;;;;;;;;4.50;99.90;;;;;;5113257;28;19920;-70
2022/12/07 06:46:19;;;;;;;;;;;4.40;99.90;;;;;;5113966;28;19919;-70
2022/12/07 06:48:45;;;;;;;;;;;4.40;99.90;;;;;;5092172;28;19928;-70
2022/12/07 06:51:10;;;;;;;;;;;4.60;99.90;;;;;;5088523;22;19925;-67
2022/12/07 06:53:36;;;;;;;;;;;4.50;99.90;;;;;;5052744;28;19959;-67
2022/12/07 06:56:02;;;;;;;;;;;4.60;99.90;;;;;;5051993;28;19963;-68
2022/12/07 06:58:28;;;;;;;;;;;4.80;99.90;;;;;;5027296;28;19999;-68
2022/12/07 07:00:53;;;;;;;;;;;4.60;99.90;;;;;;5035770;28;19925;-68
2022/12/07 07:03:19;;;;;;;;;;;4.60;99.90;;;;;;5030936;28;20390;-68
2022/12/07 07:05:44;;;;;;;;;;;4.70;99.90;;;;;;5024791;28;19940;-68
2022/12/07 07:08:10;;;;;;;;;;;4.60;99.90;;;;;;5020804;28;19924;-68
2022/12/07 07:10:36;;;;;;;;;;;4.80;99.90;;;;;;5048692;28;20310;-68
2022/12/07 07:13:02;;;;;;;;;;;4.50;99.90;;;;;;5042573;28;19925;-68
2022/12/07 07:15:28;;;;;;;;;;;4.50;99.90;;;;;;5007577;28;19925;-67
2022/12/07 07:17:53;;;;;;;;;;;4.80;99.90;;;;;;5048310;28;19931;-68
2022/12/07 07:20:19;;;;;;;;;;;4.70;99.90;;;;;;5029952;28;20349;-69
2022/12/07 07:22:44;;;;;;;;;;;4.50;99.90;;;;;;5025069;28;19929;-69
2022/12/07 07:25:10;;;;;;;;;;;;;;;;;;5012238;28;19925;-69
2022/12/07 07:27:36;;;;;;;;;;;4.60;99.90;;;;;;5014074;28;20314;-69
2022/12/07 07:30:01;;;;;;;;;;;;;;;;;;5017160;28;19933;-69
2022/12/07 07:32:27;;;;;;;;;;;4.30;99.90;;;;;;5014296;28;20022;-69
2022/12/07 07:34:53;;;;;;;;;;;4.30;99.90;;;;;;5031504;28;19932;-69
2022/12/07 07:37:18;;;;;;;;;;;4.30;99.90;;;;;;5016543;28;19925;-69
2022/12/07 07:39:44;;;;;;;;;;;4.20;99.90;;;;;;5034579;28;20383;-69
2022/12/07 07:42:09;;;;;;;;;;;3.90;99.90;;;;;;5034753;28;19983;-69
2022/12/07 07:44:35;;;;;;;;;;;4.40;99.90;;;;;;5033208;28;19940;-69
2022/12/07 07:47:00;;;;;;;;;;;4.30;99.90;;;;;;5034389;28;19921;-69
2022/12/07 07:49:26;;;;;;;;;;;4.00;99.90;;;;;;5017929;28;20011;-69
2022/12/07 07:51:52;;;;;;;;;;;4.10;99.90;;;;;;5033631;28;19927;-68
2022/12/07 07:54:17;;;;;;;;;;;4.00;99.90;;;;;;5042610;28;19932;-69
2022/12/07 07:56:43;;;;;;;;;;;4.30;99.90;;;;;;5014865;28;19921;-69
2022/12/07 07:59:08;;;;;;;;;;;4.20;99.90;;;;;;5047265;28;19986;-70
2022/12/07 08:01:34;;;;;;;;;;;4.40;99.90;;;;;;5051908;28;19921;-69
2022/12/07 08:04:01;;;;;;;;;;;4.50;99.90;;;;;;5014972;28;20004;-68
2022/12/07 08:06:27;;;;;;;;;;;4.60;99.90;;;;;;4997950;28;19940;-69
2022/12/07 08:08:52;;;;;;;;;;;4.30;99.90;;;;;;5024392;28;20065;-69
2022/12/07 08:11:18;;;;;;;;;;;4.40;99.90;;;;;;5034385;28;19921;-69
2022/12/07 08:13:46;;;;;;;;;;;4.20;99.90;;;;;;5033888;28;19925;-67
2022/12/07 08:16:12;;;;;;;;;;;4.30;99.90;;;;;;5033965;28;20390;-69
2022/12/07 08:18:39;;;;;;;;;;;4.30;99.90;;;;;;5052110;28;19967;-69
2022/12/07 08:21:05;;;;;;;;;;;4.10;99.90;;;;;;5017817;28;19978;-70
2022/12/07 08:23:30;;;;;;;;;;;4.40;99.90;;;;;;5019650;28;19921;-71
2022/12/07 08:26:16;;;;;;;;;;;4.30;99.90;;;;;;5013733;28;19921;-71
2022/12/07 08:28:42;;;;;;;;;;;4.10;99.90;;;;;;5031256;28;20004;-69
2022/12/07 08:31:17;;;;;;;;;;;4.10;99.90;;;;;;5014467;28;19979;-69
2022/12/07 08:33:45;;;;;;;;;;;4.50;99.90;;;;;;5014145;28;19979;-68
2022/12/07 08:36:11;;;;;;;;;;;;;;;;;;5031715;28;19952;-69
2022/12/07 08:38:37;;;;;;;;;;;4.30;99.90;;;;;;5017253;28;19921;-69
2022/12/07 08:41:03;;;;;;;;;;;4.30;99.90;;;;;;5017682;28;19921;-69
2022/12/07 08:43:28;;;;;;;;;;;4.60;99.90;;;;;;5051913;28;19921;-69
2022/12/07 08:46:03;;;;;;;;;;;4.50;99.90;;;;;;5051364;28;19928;-69
2022/12/07 08:48:29;;;;;;;;;;;;;;;;;;5037840;28;19932;-69
2022/12/07 08:50:55;;;;;;;;;;;4.50;99.90;;;;;;5055435;28;20302;-69
2022/12/07 08:53:21;;;;;;;;;;;4.40;99.90;;;;;;5037662;28;19924;-69
2022/12/07 08:55:47;;;;;;;;;;;4.40;99.90;;;;;;5046530;28;20382;-69
2022/12/07 08:58:13;;;;;;;;;;;4.70;99.90;;;;;;5017905;28;19972;-69
2022/12/07 09:00:38;;;;;;;;;;;4.70;99.90;;;;;;5017468;28;19925;-69
2022/12/07 09:03:04;;;;;;;;;;;4.80;99.90;;;;;;5021105;28;19925;-69
2022/12/07 09:05:29;;;;;;;;;;;4.70;99.90;;;;;;5054067;28;19975;-69
2022/12/07 09:07:57;;;;;;;;;;;4.60;99.90;;;;;;5054840;28;20383;-69
2022/12/07 09:10:23;;;;;;;;;;;4.70;99.90;;;;;;5020476;28;19921;-69
2022/12/07 09:12:48;;;;;;;;;;;4.70;99.90;;;;;;5035427;28;20314;-69
2022/12/07 09:15:14;;;;;;;;;;;4.90;99.90;;;;;;5036745;28;19928;-69
2022/12/07 09:17:39;;;;;;;;;;;5.00;99.90;;;;;;5054091;28;19928;-69
2022/12/07 09:20:05;;;;;;;;;;;4.80;99.90;;;;;;5020766;28;20385;-69
2022/12/07 09:22:31;;;;;;;;;;;4.60;99.90;;;;;;5054940;28;20247;-69
2022/12/07 09:24:57;;;;;;;;;;;4.80;99.90;;;;;;5053880;28;19921;-69
2022/12/07 09:27:23;;;;;;;;;;;4.50;99.90;;;;;;5054925;28;20414;-69
2022/12/07 09:29:48;;;;;;;;;;;4.90;99.90;;;;;;5035073;28;19925;-69
2022/12/07 09:32:14;;;;;;;;;;;5.00;99.90;;;;;;5054547;28;19920;-69
2022/12/07 09:34:39;;;;;;;;;;;5.00;99.90;;;;;;5035983;28;19925;-69
2022/12/07 09:37:06;;;;;;;;;;;5.00;99.90;;;;;;5037027;28;20011;-69
2022/12/07 09:39:31;;;;;;;;;;;5.40;99.90;;;;;;5037244;28;19924;-69
2022/12/07 09:41:58;;;;;;;;;;;5.10;99.90;;;;;;5054877;28;19921;-69
2022/12/07 09:44:24;;;;;;;;;;;5.20;99.90;;;;;;5036184;28;20271;-69
2022/12/07 09:46:50;;;;;;;;;;;5.50;99.90;;;;;;5042839;28;19927;-69
2022/12/07 09:49:20;;;;;;;;;;;5.60;99.90;;;;;;5017196;28;20008;-69
2022/12/07 09:51:46;;;;;;;;;;;5.50;99.90;;;;;;5016701;28;20067;-70
2022/12/07 09:54:13;;;;;;;;;;;5.80;99.90;;;;;;5015730;28;19983;-70
2022/12/07 09:56:39;;;;;;;;;;;5.40;99.90;;;;;;5016672;28;20449;-69
2022/12/07 09:59:04;;;;;;;;;;;6.30;99.90;;;;;;5033037;28;19921;-69
2022/12/07 10:01:31;;;;;;;;;;;5.60;99.90;;;;;;5016408;28;19921;-70
2022/12/07 10:04:16;;;;;;;;;;;5.60;99.90;;;;;;5016628;28;19970;-71
2022/12/07 10:06:42;;;;;;;;;;;5.70;99.90;;;;;;5016365;28;19921;-70
2022/12/07 10:09:09;;;;;;;;;;;5.50;99.90;;;;;;5016374;28;19928;-70
2022/12/07 10:11:34;;;;;;;;;;;5.70;99.90;;;;;;4999876;28;20023;-70
2022/12/07 10:14:11;;;;;;;;;;;5.50;99.90;;;;;;5015315;28;20008;-70
2022/12/07 10:16:41;;;;;;;;;;;5.80;99.90;;;;;;5016203;28;19937;-70
2022/12/07 10:19:22;;;;;;;;;;;5.60;99.90;;;;;;5035292;28;19928;-70
2022/12/07 10:22:06;;;;;;;;;;;5.70;99.90;;;;;;5035121;28;19966;-70
2022/12/07 10:24:32;;;;;;;;;;;5.90;99.90;;;;;;5034922;28;19921;-70
2022/12/07 10:26:58;;;;;;;;;;;5.90;99.90;;;;;;5053637;28;19921;-70
2022/12/07 10:29:27;;;;;;;;;;;6.00;99.90;;;;;;5053439;28;20551;-70
2022/12/07 10:31:56;;;;;;;;;;;6.00;99.90;;;;;;5035464;28;19976;-70
2022/12/07 10:34:24;;;;;;;;;;;6.00;99.90;;;;;;5034862;28;19925;-70
2022/12/07 10:36:50;;;;;;;;;;;5.80;99.90;;;;;;5027296;28;19929;-71
2022/12/07 10:39:17;;;;;;;;;;;6.10;99.90;;;;;;5015597;28;19925;-70
2022/12/07 10:41:54;;;;;;;;;;;6.20;99.90;;;;;;5015538;28;19921;-70
2022/12/07 10:44:26;;;;;;;;;;;6.30;99.90;;;;;;5023414;28;19921;-70
2022/12/07 10:46:51;;;;;;;;;;;6.40;99.90;;;;;;5033178;28;19928;-70
2022/12/07 10:49:19;;;;;;;;;;;6.80;99.90;;;;;;5053052;28;19921;-70
2022/12/07 10:52:04;;;;;;;;;;;6.50;99.90;;;;;;5034579;28;19924;-70
2022/12/07 10:54:48;;;;;;;;;;;6.60;99.90;;;;;;5029848;28;20024;-70
2022/12/07 10:57:17;;;;;;;;;;;6.70;99.90;;;;;;5034200;28;19921;-70
2022/12/07 10:59:49;;;;;;;;;;;6.50;99.90;;;;;;5053150;28;20280;-70
2022/12/07 11:02:15;;;;;;;;;;;6.60;99.90;;;;;;5035173;28;19927;-70
2022/12/07 11:04:54;;;;;;;;;;;6.40;99.90;;;;;;5034424;28;19924;-70
2022/12/07 11:07:38;;;;;;;;;;;6.40;99.90;;;;;;5053048;28;19931;-70
2022/12/07 11:10:03;;;;;;;;;;;6.20;99.90;;;;;;5032799;28;19966;-70
2022/12/07 11:12:43;;;;;;;;;;;6.30;99.90;;;;;;5052703;28;20313;-70
2022/12/07 11:15:15;;;;;;;;;;;6.30;99.90;;;;;;5033907;28;19936;-70
2022/12/07 11:18:16;;;;;;;;;;;6.20;99.90;;;;;;5018775;28;20481;-70
2022/12/07 11:20:52;;;;;;;;;;;6.10;99.90;;;;;;4958898;28;19922;-70
2022/12/07 11:23:20;;;;;;;;;;;6.10;99.90;;;;;;5026576;28;19924;-71
2022/12/07 11:25:52;;;;;;;;;;;6.00;99.90;;;;;;5017715;28;20294;-70
2022/12/07 11:28:23;;;;;;;;;;;6.10;99.90;;;;;;5005103;28;19921;-70
2022/12/07 11:31:21;;;;;;;;;;;6.10;99.90;;;;;;5013987;28;19971;-70
2022/12/07 11:33:50;;;;;;;;;;;6.30;99.90;;;;;;4988807;28;19929;-70
2022/12/07 11:36:27;;;;;;;;;;;6.10;99.90;;;;;;5052153;28;19925;-70
2022/12/07 11:38:55;;;;;;;;;;;6.30;99.90;;;;;;5020431;28;19921;-70
2022/12/07 11:41:28;;;;;;;;;;;6.40;99.90;;;;;;5018419;28;20448;-70
2022/12/07 11:43:56;;;;;;;;;;;6.40;99.90;;;;;;5027574;28;20379;-68
2022/12/07 11:46:24;;;;;;;;;;;6.60;99.90;;;;;;5029061;28;19927;-70
2022/12/07 11:48:59;;;;;;;;;;;6.70;99.90;;;;;;5033978;28;20462;-70
2022/12/07 11:51:25;;;;;;;;;;;6.80;99.90;;;;;;5031696;28;20491;-70
2022/12/07 11:53:58;;;;;;;;;;;6.40;99.90;;;;;;5050907;28;20257;-70
2022/12/07 11:56:26;;;;;;;;;;;6.40;99.90;;;;;;5032699;28;19928;-70
2022/12/07 11:58:52;;;;;;;;;;;6.40;99.90;;;;;;5032962;28;20045;-70
2022/12/07 12:01:28;;;;;;;;;;;6.10;99.90;;;;;;5032530;28;20022;-71
2022/12/07 12:03:56;;;;;;;;;;;6.00;99.90;;;;;;5025698;28;19920;-69
2022/12/07 12:06:21;;;;;;;;;;;5.50;99.90;;;;;;5041910;28;19925;-71
2022/12/07 12:08:59;;;;;;;;;;;5.60;99.90;;;;;;5013808;28;19928;-71
2022/12/07 12:11:37;;;;;;;;;;;5.30;99.90;;;;;;5025813;28;19997;-71
2022/12/07 12:14:02;;;;;;;;;;;5.20;99.90;;;;;;5029147;28;19959;-69
2022/12/07 12:16:31;;;;;;;;;;;5.10;99.90;;;;;;5025906;28;20461;-71
2022/12/07 12:18:56;;;;;;;;;;;5.10;99.90;;;;;;5046294;28;19968;-71
2022/12/07 12:21:29;;;;;;;;;;;5.10;99.90;;;;;;5030442;28;19968;-71
2022/12/07 12:24:00;;;;;;;;;;;5.20;99.90;;;;;;5031466;28;20560;-70
2022/12/07 12:26:28;;;;;;;;;;;5.20;99.90;;;;;;5016724;28;19929;-70
2022/12/07 12:28:58;;;;;;;;;;;5.00;99.90;;;;;;5032739;28;20428;-71
2022/12/07 12:31:27;;;;;;;;;;;5.20;99.90;;;;;;5034470;28;20125;-71
2022/12/07 12:33:57;;;;;;;;;;;5.40;99.90;;;;;;5014864;28;19933;-69
2022/12/07 12:36:35;;;;;;;;;;;5.40;99.90;;;;;;5034537;28;19967;-70
2022/12/07 12:39:06;;;;;;;;;;;5.30;99.90;;;;;;5052288;28;20314;-70
2022/12/07 12:41:32;;;;;;;;;;;;;;;;;;5034274;28;19925;-70
2022/12/07 12:43:57;;;;;;;;;;;5.50;99.90;;;;;;5031604;28;19932;-71
2022/12/07 12:46:29;;;;;;;;;;;5.50;99.90;;;;;;5012880;28;20406;-70
2022/12/07 12:49:13;;;;;;;;;;;5.50;99.90;;;;;;5030286;28;19929;-70
2022/12/07 12:51:40;;;;;;;;;;;5.50;99.90;;;;;;5055579;22;19925;-72
2022/12/07 12:54:10;;;;;;;;;;;5.50;99.90;;;;;;5034612;28;19974;-72
2022/12/07 12:56:42;;;;;;;;;;;5.70;99.90;;;;;;5035899;28;19932;-72
2022/12/07 12:59:23;;;;;;;;;;;5.80;99.90;;;;;;5037991;28;20361;-72
2022/12/07 13:02:15;;;;;;;;;;;5.50;99.90;;;;;;5061647;28;19925;-72
2022/12/07 13:04:54;;;;;;;;;;;5.60;99.90;;;;;;5027201;28;20406;-72
2022/12/07 13:07:58;;;;;;;;;;;5.50;99.90;;;;;;5040643;28;19920;-72
2022/12/07 13:10:28;;;;;;;;;;;5.50;99.90;;;;;;5013525;28;19928;-71
2022/12/07 13:12:56;;;;;;;;;;;5.60;99.90;;;;;;5013219;28;19922;-71
2022/12/07 13:15:32;;;;;;;;;;;5.60;99.90;;;;;;5033231;28;19940;-71
2022/12/07 13:18:00;;;;;;;;;;;5.70;99.90;;;;;;5055277;28;20298;-71
2022/12/07 13:20:46;;;;;;;;;;;5.60;99.90;;;;;;5030417;28;19968;-71
2022/12/07 13:23:13;;;;;;;;;;;5.70;99.90;;;;;;5034918;28;20320;-71
2022/12/07 13:25:47;;;;;;;;;;;5.70;99.90;;;;;;5013580;28;19970;-71
2022/12/07 13:28:15;;;;;;;;;;;5.70;99.90;;;;;;5034544;28;20447;-73
2022/12/07 13:30:59;;;;;;;;;;;5.60;99.90;;;;;;5000307;28;19928;-71
2022/12/07 13:33:27;;;;;;;;;;;5.60;99.90;;;;;;5034070;28;20496;-71
2022/12/07 13:35:56;;;;;;;;;;;5.80;99.90;;;;;;4999922;28;19932;-71
2022/12/07 13:38:27;;;;;;;;;;;5.70;99.90;;;;;;5000609;28;19976;-71
2022/12/07 13:41:19;;;;;;;;;;;5.40;99.90;;;;;;5016536;28;19921;-71
2022/12/07 13:43:53;;;;;;;;;;;5.60;99.90;;;;;;5014317;28;20302;-71
2022/12/07 13:46:35;;;;;;;;;;;5.70;99.90;;;;;;5036104;28;19928;-73
2022/12/07 13:49:00;;;;;;;;;;;5.60;99.90;;;;;;5041573;28;20372;-71
2022/12/07 13:51:27;;;;;;;;;;;5.70;99.90;;;;;;5048993;28;19965;-72
2022/12/07 13:53:53;;;;;;;;;;;;;;;;;;5051197;28;19928;-72
2022/12/07 13:56:20;;;;;;;;;;;5.50;99.90;;;;;;5034632;28;19927;-71
2022/12/07 13:58:46;;;;;;;;;;;5.40;99.90;;;;;;5027919;28;19921;-72
2022/12/07 14:01:13;;;;;;;;;;;5.60;99.90;;;;;;5015627;28;19925;-72
2022/12/07 14:03:39;;;;;;;;;;;5.60;99.90;;;;;;5019773;28;20394;-71
2022/12/07 14:06:05;;;;;;;;;;;5.50;99.90;;;;;;5052997;28;19928;-72
2022/12/07 14:08:30;;;;;;;;;;;5.60;99.90;;;;;;5053905;28;19967;-71
2022/12/07 14:10:57;;;;;;;;;;;5.50;99.90;;;;;;5033180;28;19983;-71
2022/12/07 14:13:30;;;;;;;;;;;5.50;99.90;;;;;;5035396;28;19929;-71
2022/12/07 14:15:58;;;;;;;;;;;5.40;99.90;;;;;;5034672;28;19924;-71
2022/12/07 14:18:28;;;;;;;;;;;5.30;99.90;;;;;;5053234;28;19921;-71
2022/12/07 14:21:09;;;;;;;;;;;5.40;99.90;;;;;;5010438;28;19951;-72
2022/12/07 14:23:34;;;;;;;;;;;5.30;99.90;;;;;;5025027;28;20438;-72
2022/12/07 14:26:18;;;;;;;;;;;5.40;99.90;;;;;;5023028;28;20055;-71
2022/12/07 14:28:44;;;;;;;;;;;5.10;99.90;;;;;;5025064;28;19921;-72
2022/12/07 14:31:16;;;;;;;;;;;5.50;99.90;;;;;;5018297;28;20401;-71
2022/12/07 14:33:42;;;;;;;;;;;5.20;99.90;;;;;;5049775;28;20020;-72
2022/12/07 14:36:11;;;;;;;;;;;5.30;99.90;;;;;;5025118;28;20011;-71
2022/12/07 14:38:37;;;;;;;;;;;5.00;99.90;;;;;;5025623;28;20290;-71
2022/12/07 14:43:48;;;;;;;;;;;5.20;99.90;;;;;;5051726;28;19925;-71
2022/12/07 14:46:13;;;;;;;;;;;5.20;99.90;;;;;;5041824;28;19943;-72
2022/12/07 14:48:39;;;;;;;;;;;5.30;99.90;;;;;;5032312;28;20368;-71